Time;durP1;ratioP1;P1;durP2;ratioP2;P2;SDS_P1;SDS_P2;PMS_P1;PMS_P2;Temp;Humidity;BMP_temperature;BMP_pressure;BME280_temperature;BME280_humidity;BME280_pressure;Samples;Min_cycle;Max_cycle;Signal;HPM_P1;HPM_P2
2022/05/24 00:00:08;;;;;;;2.75;1.00;;;;;;;-145.69;100.00;70415.53;5071331;28;20617;-75
2022/05/24 00:02:35;;;;;;;8.00;1.42;;;;;;;-145.69;100.00;70423.50;5052961;28;20589;-76
2022/05/24 00:05:01;;;;;;;4.00;0.80;;;;;;;-145.69;100.00;70417.53;5058534;28;20823;-75
2022/05/24 00:07:30;;;;;;;2.58;0.70;;;;;;;-145.69;100.00;70413.56;5073446;28;20207;-75
2022/05/24 00:09:56;;;;;;;2.72;1.10;;;;;;;-145.69;100.00;70415.53;5073052;28;20207;-76
2022/05/24 00:12:24;;;;;;;1.45;0.93;;;;;;;-145.69;100.00;70411.56;5073406;28;20214;-75
2022/05/24 00:17:35;;;;;;;2.17;0.77;;;;;;;-145.69;100.00;70417.53;5073136;28;20204;-76
2022/05/24 00:20:02;;;;;;;1.27;0.80;;;;;;;-145.69;100.00;70415.53;5072928;28;20190;-76
2022/05/24 00:22:28;;;;;;;0.82;0.70;;;;;;;-145.69;100.00;70413.56;5073178;28;20222;-76
2022/05/24 00:24:56;;;;;;;4.30;1.00;;;;;;;-145.69;100.00;70419.53;5073067;28;20266;-76
2022/05/24 00:27:24;;;;;;;2.53;0.80;;;;;;;-145.69;100.00;70417.53;5073093;28;20661;-75
2022/05/24 00:29:51;;;;;;;2.97;0.98;;;;;;;-145.69;100.00;70419.53;5072866;28;20264;-76
2022/05/24 00:32:17;;;;;;;2.42;1.02;;;;;;;-145.69;100.00;70421.50;5072846;28;20260;-76
2022/05/24 00:34:43;;;;;;;0.93;0.73;;;;;;;-145.69;100.00;70427.47;5073043;28;20214;-76
2022/05/24 00:37:14;;;;;;;1.10;0.75;;;;;;;-145.69;100.00;70421.50;5072843;28;20653;-76
2022/05/24 00:39:41;;;;;;;1.08;0.70;;;;;;;-145.69;100.00;70411.56;5073162;28;20206;-76
2022/05/24 00:42:13;;;;;;;1.05;0.70;;;;;;;-145.69;100.00;70409.56;5072781;28;20287;-76
2022/05/24 00:44:47;;;;;;;0.80;0.70;;;;;;;-145.69;100.00;70421.50;5073147;28;20209;-76
2022/05/24 00:47:23;;;;;;;3.00;0.77;;;;;;;-145.69;100.00;70425.50;5072765;28;20221;-76
2022/05/24 00:49:56;;;;;;;1.42;0.80;;;;;;;-145.69;100.00;70437.44;5072851;28;20198;-76
2022/05/24 00:52:28;;;;;;;1.75;0.98;;;;;;;-145.69;100.00;70457.31;5072943;28;20202;-75
2022/05/24 00:54:54;;;;;;;3.00;0.90;;;;;;;-145.69;100.00;70459.31;5072721;28;20190;-76
2022/05/24 00:57:28;;;;;;;1.98;0.90;;;;;;;-145.69;100.00;70471.25;5072115;28;20260;-76
2022/05/24 01:00:02;;;;;;;1.27;0.90;;;;;;;-145.69;100.00;70491.13;5072811;28;20209;-75
2022/05/24 01:02:29;;;;;;;1.05;0.80;;;;;;;-145.69;100.00;70485.16;5072809;28;20305;-76
2022/05/24 01:04:57;;;;;;;1.10;0.90;;;;;;;-145.69;100.00;70491.13;5072527;28;20203;-76
2022/05/24 01:07:23;;;;;;;1.33;0.80;;;;;;;-145.69;100.00;70495.13;5072708;28;20203;-75
2022/05/24 01:09:55;;;;;;;2.22;0.80;;;;;;;-145.69;100.00;70495.13;5072781;28;20226;-76
2022/05/24 01:12:25;;;;;;;2.70;0.90;;;;;;;-145.69;100.00;70485.16;5072595;28;20264;-76
2022/05/24 01:14:54;;;;;;;2.10;0.90;;;;;;;-145.69;100.00;70487.16;5074833;28;20271;-76
2022/05/24 01:17:23;;;;;;;1.40;0.70;;;;;;;-145.69;100.00;70501.09;5076393;28;20198;-76
2022/05/24 01:19:50;;;;;;;1.38;0.73;;;;;;;-145.69;100.00;70519.00;5076661;28;20618;-76
2022/05/24 01:22:40;;;;;;;1.63;0.80;;;;;;;-145.69;100.00;70522.97;5076217;28;20235;-76
2022/05/24 01:25:12;;;;;;;1.58;0.77;;;;;;;-145.69;100.00;70526.94;5056260;28;20230;-76
2022/05/24 01:27:40;;;;;;;2.65;0.60;;;;;;;-145.69;100.00;70538.88;5056390;28;20562;-76
2022/05/24 01:30:09;;;;;;;1.00;0.88;;;;;;;-145.69;100.00;70542.88;5058420;28;20195;-76
2022/05/24 01:38:47;;;;;;;1.65;0.90;;;;;;;-145.69;100.00;70574.69;5056020;28;20194;-76
2022/05/24 01:41:20;;;;;;;1.40;1.00;;;;;;;-145.69;100.00;70574.69;5056515;28;20215;-76
2022/05/24 01:43:51;;;;;;;1.60;1.20;;;;;;;-145.69;100.00;70582.66;5073651;28;20234;-76
2022/05/24 01:46:22;;;;;;;6.45;1.33;;;;;;;-145.69;100.00;70584.66;5076092;28;20752;-76
2022/05/24 01:48:51;;;;;;;2.85;1.40;;;;;;;-145.69;100.00;70586.63;5075840;28;20209;-76
2022/05/24 01:51:22;;;;;;;4.72;0.85;;;;;;;-145.69;100.00;70590.63;5076172;28;20199;-76
2022/05/24 01:53:53;;;;;;;1.50;0.80;;;;;;;-145.69;100.00;70588.63;5060036;28;20203;-76
2022/05/24 01:56:25;;;;;;;2.88;0.93;;;;;;;-145.69;100.00;70584.66;5055868;28;20689;-76
2022/05/24 01:59:00;;;;;;;1.92;0.90;;;;;;;-145.69;100.00;70594.59;5055946;28;20203;-76
2022/05/24 02:01:35;;;;;;;1.33;0.85;;;;;;;-145.69;100.00;70610.50;5055702;28;20683;-76
2022/05/24 02:04:02;;;;;;;1.42;0.93;;;;;;;-145.69;100.00;70616.47;5074265;28;20620;-76
2022/05/24 02:06:29;;;;;;;1.45;0.90;;;;;;;-145.69;100.00;70628.41;5075676;28;20285;-76
2022/05/24 02:08:56;;;;;;;2.38;0.90;;;;;;;-145.69;100.00;70638.34;5075627;28;20207;-76
2022/05/24 02:11:27;;;;;;;1.20;0.90;;;;;;;-145.69;100.00;70638.34;5075406;28;20600;-76
2022/05/24 02:13:59;;;;;;;4.43;1.10;;;;;;;-145.69;100.00;70630.41;5075066;28;20680;-76
2022/05/24 02:16:30;;;;;;;2.28;1.15;;;;;;;-145.69;100.00;70638.34;5075340;28;20645;-75
2022/05/24 02:18:58;;;;;;;1.67;0.93;;;;;;;-145.69;100.00;70654.28;5074893;28;20198;-75
2022/05/24 02:21:25;;;;;;;2.22;1.42;;;;;;;-145.69;100.00;70644.31;5075593;28;20203;-75
2022/05/24 02:23:52;;;;;;;1.30;1.00;;;;;;;-145.69;100.00;70654.28;5075079;28;20655;-75
2022/05/24 02:26:21;;;;;;;3.03;1.00;;;;;;;-145.69;100.00;70666.22;5074362;28;20195;-76
2022/05/24 02:28:51;;;;;;;3.83;1.10;;;;;;;-145.69;100.00;70678.16;5075190;28;20282;-76
2022/05/24 02:31:20;;;;;;;1.30;1.02;;;;;;;-145.69;100.00;70682.13;5075284;28;20210;-76
2022/05/24 02:33:47;;;;;;;3.55;1.00;;;;;;;-145.69;100.00;70690.09;5074938;28;20213;-75
2022/05/24 02:36:14;;;;;;;1.20;1.10;;;;;;;-145.69;100.00;70684.13;5075258;28;20203;-76
2022/05/24 02:38:41;;;;;;;5.10;1.60;;;;;;;-145.69;100.00;70678.16;5074724;28;20232;-76
2022/05/24 02:43:53;;;;;;;3.08;1.20;;;;;;;-145.69;100.00;70682.13;5074939;28;20711;-75
2022/05/24 02:46:21;;;;;;;2.40;1.50;;;;;;;-145.69;100.00;70670.19;5074947;28;20230;-76
2022/05/24 02:48:48;;;;;;;4.03;1.30;;;;;;;-145.69;100.00;70670.19;5074507;28;20202;-76
2022/05/24 02:51:17;;;;;;;2.80;1.40;;;;;;;-145.69;100.00;70674.16;5074732;28;20237;-75
2022/05/24 02:53:45;;;;;;;1.53;1.10;;;;;;;-145.69;100.00;70666.22;5074481;28;20202;-76
2022/05/24 02:56:13;;;;;;;2.00;1.30;;;;;;;-145.69;100.00;70672.19;5074255;28;20549;-76
2022/05/24 02:58:40;;;;;;;3.17;1.47;;;;;;;-145.69;100.00;70670.19;5074630;28;20718;-78
2022/05/24 03:01:13;;;;;;;5.27;1.40;;;;;;;-145.69;100.00;70666.22;5074499;28;20206;-75
2022/05/24 03:03:41;;;;;;;5.20;1.30;;;;;;;-145.69;100.00;70658.25;5074614;28;20222;-76
2022/05/24 03:06:07;;;;;;;8.07;1.87;;;;;;;-145.69;100.00;70662.22;5074089;28;20202;-76
2022/05/24 03:11:18;;;;;;;1.48;1.05;;;;;;;-145.69;100.00;70668.19;5074583;28;20675;-76
2022/05/24 03:16:27;;;;;;;4.90;1.90;;;;;;;-145.69;100.00;70662.22;5066392;28;20252;-76
2022/05/24 03:18:55;;;;;;;3.37;1.07;;;;;;;-145.69;100.00;70662.22;5074281;28;20199;-76
2022/05/24 03:21:22;;;;;;;6.93;1.50;;;;;;;-145.69;100.00;70650.28;5074318;28;20198;-76
2022/05/24 03:23:48;;;;;;;4.03;1.35;;;;;;;-145.69;100.00;70654.28;5073855;28;20246;-76
2022/05/24 03:26:15;;;;;;;2.97;1.38;;;;;;;-145.69;100.00;70644.31;5073778;28;20206;-76
2022/05/24 03:28:42;;;;;;;3.13;1.40;;;;;;;-145.69;100.00;70642.34;5073898;28;20230;-76
2022/05/24 03:31:09;;;;;;;3.25;1.20;;;;;;;-145.69;100.00;70640.34;5073771;28;20203;-76
2022/05/24 03:33:36;;;;;;;7.18;1.10;;;;;;;-145.69;100.00;70646.31;5074151;28;20653;-76
2022/05/24 03:36:04;;;;;;;5.18;1.48;;;;;;;-145.69;100.00;70652.28;5073467;28;20723;-76
2022/05/24 03:38:31;;;;;;;1.38;1.00;;;;;;;-145.69;100.00;70664.22;5073843;28;20202;-76
2022/05/24 03:40:57;;;;;;;1.55;1.17;;;;;;;-145.69;100.00;70660.25;5073886;28;20209;-76
2022/05/24 03:43:25;;;;;;;3.13;1.40;;;;;;;-145.69;100.00;70662.22;5073603;28;20461;-76
2022/05/24 03:45:59;;;;;;;2.58;1.45;;;;;;;-145.69;100.00;70658.25;5073216;28;20616;-76
2022/05/24 03:48:26;;;;;;;1.50;1.20;;;;;;;-145.69;100.00;70650.28;5073883;28;20225;-76
2022/05/24 03:50:52;;;;;;;1.05;0.93;;;;;;;-145.69;100.00;70638.34;5072957;28;20199;-77
2022/05/24 03:53:20;;;;;;;2.80;1.40;;;;;;;-145.69;100.00;70626.41;5070151;28;20575;-76
2022/05/24 03:55:47;;;;;;;1.83;1.55;;;;;;;-145.69;100.00;70630.41;5073517;28;20198;-76
2022/05/24 03:58:13;;;;;;;5.68;1.98;;;;;;;-145.69;100.00;70630.41;5073434;28;20199;-76
2022/05/24 04:00:42;;;;;;;4.03;1.33;;;;;;;-145.69;100.00;70632.38;5073628;28;20202;-76
2022/05/24 04:03:09;;;;;;;4.53;1.67;;;;;;;-145.69;100.00;70636.38;5073326;28;20226;-76
2022/05/24 04:05:36;;;;;;;1.98;1.27;;;;;;;-145.69;100.00;70646.31;5073047;28;20202;-76
2022/05/24 04:08:04;;;;;;;8.00;1.52;;;;;;;-145.69;100.00;70636.38;5073223;28;20221;-76
2022/05/24 04:10:33;;;;;;;1.63;1.05;;;;;;;-145.69;100.00;70634.38;5072897;28;20202;-76
2022/05/24 04:13:00;;;;;;;2.80;1.27;;;;;;;-145.69;100.00;70626.41;5073110;28;20199;-77
2022/05/24 04:15:27;;;;;;;4.57;1.45;;;;;;;-145.69;100.00;70618.47;5073379;28;20202;-76
2022/05/24 04:17:55;;;;;;;3.83;1.42;;;;;;;-145.69;100.00;70614.47;5073319;28;20210;-76
2022/05/24 04:20:24;;;;;;;2.95;1.40;;;;;;;-145.69;100.00;70614.47;5073074;28;20760;-76
2022/05/24 04:22:52;;;;;;;2.58;1.40;;;;;;;-145.69;100.00;70618.47;5072710;28;20268;-76
2022/05/24 04:25:19;;;;;;;2.35;1.20;;;;;;;-145.69;100.00;70626.41;5072724;28;20249;-76
2022/05/24 04:27:48;;;;;;;2.37;1.20;;;;;;;-145.69;100.00;70634.38;5071987;28;20442;-76
2022/05/24 04:30:17;;;;;;;4.53;1.38;;;;;;;-145.69;100.00;70630.41;5073007;28;20664;-76
2022/05/24 04:32:46;;;;;;;5.72;1.38;;;;;;;-145.69;100.00;70626.41;5072918;28;20222;-76
2022/05/24 04:35:18;;;;;;;4.50;1.23;;;;;;;-145.69;100.00;70622.44;5072945;28;20198;-76
2022/05/24 04:37:45;;;;;;;3.15;1.45;;;;;;;-145.69;100.00;70624.44;5072843;28;20202;-76
2022/05/24 04:40:14;;;;;;;4.35;1.50;;;;;;;-145.69;100.00;70614.47;5072588;28;20198;-76
2022/05/24 04:42:40;;;;;;;3.08;1.40;;;;;;;-145.69;100.00;70616.47;5072264;28;20534;-76
2022/05/24 04:45:11;;;;;;;3.78;1.20;;;;;;;-145.69;100.00;70606.53;5073073;28;20206;-76
2022/05/24 04:47:44;;;;;;;1.95;1.27;;;;;;;-145.69;100.00;70600.56;5072840;28;20206;-77
2022/05/24 04:50:13;;;;;;;1.58;1.02;;;;;;;-145.69;100.00;70602.56;5072213;28;20744;-77
2022/05/24 04:52:42;;;;;;;5.50;0.98;;;;;;;-145.69;100.00;70590.63;5072683;28;20197;-76
2022/05/24 04:55:11;;;;;;;4.30;1.20;;;;;;;-145.69;100.00;70584.66;5073128;28;20207;-76
2022/05/24 04:57:38;;;;;;;3.97;1.10;;;;;;;-145.69;100.00;70578.69;5072884;28;20199;-77
2022/05/24 05:00:06;;;;;;;3.13;1.00;;;;;;;-145.69;100.00;70572.72;5072756;28;20209;-77
2022/05/24 05:02:34;;;;;;;1.13;1.02;;;;;;;-145.69;100.00;70582.66;5072246;28;20199;-76
2022/05/24 05:05:04;;;;;;;1.77;0.98;;;;;;;-145.69;100.00;70582.66;5072645;28;20203;-76
2022/05/24 05:07:33;;;;;;;7.78;1.27;;;;;;;-145.69;100.00;70584.66;5072678;28;20202;-76
2022/05/24 05:10:02;;;;;;;4.32;1.08;;;;;;;-145.69;100.00;70574.69;5072358;28;20649;-76
2022/05/24 05:12:29;;;;;;;2.17;1.00;;;;;;;-145.69;100.00;70570.72;5072002;28;20201;-76
2022/05/24 05:14:55;;;;;;;4.40;0.90;;;;;;;-145.69;100.00;70552.81;5072667;28;20206;-76
2022/05/24 05:17:22;;;;;;;7.38;0.98;;;;;;;-145.69;100.00;70544.84;5072433;28;20195;-76
2022/05/24 05:19:50;;;;;;;0.70;0.63;;;;;;;-145.69;98.91;70534.91;5072641;28;20206;-76
2022/05/24 05:22:18;;;;;;;8.93;0.90;;;;;;;-145.69;99.24;70534.91;5072433;28;20198;-76
2022/05/24 05:24:45;;;;;;;5.03;0.80;;;;;;;-145.69;100.00;70538.88;5072286;28;20238;-76
2022/05/24 05:27:14;;;;;;;1.95;0.85;;;;;;;-145.69;100.00;70542.88;5072298;28;20203;-77
2022/05/24 05:32:30;;;;;;;2.95;1.20;;;;;;;-145.69;100.00;70552.81;5072159;28;20214;-77
2022/05/24 05:35:03;;;;;;;3.25;0.98;;;;;;;-145.69;100.00;70558.78;5072494;28;20668;-77
2022/05/24 05:37:35;;;;;;;4.63;1.65;;;;;;;-145.69;95.37;70550.81;5072557;28;20199;-77
2022/05/24 05:40:04;;;;;;;6.88;1.65;;;;;;;-145.69;99.06;70546.84;5072435;28;20241;-77
2022/05/24 05:42:32;;;;;;;1.95;0.88;;;;;;;-145.69;97.30;70546.84;5071977;28;20227;-77
2022/05/24 05:45:00;;;;;;;1.85;0.80;;;;;;;-145.69;97.25;70538.88;5072260;28;20303;-76
2022/05/24 05:47:26;;;;;;;2.40;0.80;;;;;;;-145.69;98.56;70544.84;5072502;28;20210;-77
2022/05/24 05:49:52;;;;;;;2.40;0.90;;;;;;;-145.69;97.39;70534.91;5066362;28;20203;-77
2022/05/24 05:52:20;;;;;;;3.75;0.90;;;;;;;-145.69;96.88;70548.84;5059274;28;20207;-77
2022/05/24 05:54:49;;;;;;;4.78;0.82;;;;;;;-145.69;96.43;70532.91;5072508;28;20217;-77
2022/05/24 05:57:15;;;;;;;4.47;0.80;;;;;;;-145.69;94.98;70538.88;5072470;28;20213;-76
2022/05/24 05:59:41;;;;;;;3.30;0.93;;;;;;;-145.69;94.01;70544.84;5072342;28;20284;-77
2022/05/24 06:02:09;;;;;;;1.90;0.90;;;;;;;-145.69;94.82;70522.97;5074451;28;20199;-77
2022/05/24 06:04:36;;;;;;;1.50;0.68;;;;;;;-145.69;93.24;70532.91;5075401;28;20330;-76
2022/05/24 06:07:03;;;;;;;3.00;0.80;;;;;;;-145.69;93.63;70534.91;5075687;28;20199;-76
2022/05/24 06:09:31;;;;;;;1.67;0.70;;;;;;;-145.69;93.44;70532.91;5075397;28;20199;-77
2022/05/24 06:11:58;;;;;;;2.35;0.80;;;;;;;-145.69;92.49;70536.91;5075770;28;20256;-77
2022/05/24 06:14:24;;;;;;;5.35;1.13;;;;;;;-145.69;92.83;70536.91;5075356;28;20680;-77
2022/05/24 06:16:51;;;;;;;3.40;0.90;;;;;;;-145.69;93.32;70534.91;5075012;28;20229;-77
2022/05/24 06:19:17;;;;;;;3.22;0.80;;;;;;;-145.69;91.53;70522.97;5075217;28;20264;-77
2022/05/24 06:21:45;;;;;;;5.05;1.10;;;;;;;-145.69;89.41;70522.97;5075402;28;20194;-78
2022/05/24 06:24:11;;;;;;;0.85;0.45;;;;;;;-145.69;90.36;70495.13;5075154;28;20248;-77
2022/05/24 06:26:39;;;;;;;0.93;0.60;;;;;;;-145.69;89.87;70471.25;5075406;28;20267;-77
2022/05/24 06:29:06;;;;;;;1.35;0.60;;;;;;;-145.69;88.65;70441.41;5074885;28;20195;-77
2022/05/24 06:31:34;;;;;;;2.00;0.77;;;;;;;-145.69;87.68;70423.50;5075266;28;20226;-77
2022/05/24 06:34:01;;;;;;;5.07;0.75;;;;;;;-145.69;87.06;70441.41;5075111;28;20206;-78
2022/05/24 06:36:27;;;;;;;4.90;1.00;;;;;;;-145.69;88.31;70483.19;5075074;28;20202;-78
2022/05/24 06:38:54;;;;;;;4.40;0.70;;;;;;;-145.69;90.20;70467.28;5075183;28;20252;-78
2022/05/24 06:41:23;;;;;;;2.22;0.80;;;;;;;-145.69;89.43;70479.19;5074814;28;20194;-77
2022/05/24 06:43:53;;;;;;;3.67;0.70;;;;;;;-145.69;92.56;70511.03;5074482;28;20229;-78
2022/05/24 06:46:20;;;;;;;3.17;0.80;;;;;;;-145.69;92.13;70520.97;5074792;28;20198;-79
2022/05/24 06:48:46;;;;;;;5.35;1.02;;;;;;;-145.69;90.42;70526.94;5074893;28;20607;-78
2022/05/24 06:51:15;;;;;;;3.83;0.63;;;;;;;-145.69;92.57;70536.91;5074493;28;20436;-78
2022/05/24 06:53:43;;;;;;;2.38;0.63;;;;;;;-145.69;90.13;70548.84;5074390;28;20198;-78
2022/05/24 06:56:10;;;;;;;1.20;0.80;;;;;;;-145.69;90.25;70562.75;5074547;28;20211;-79
2022/05/24 06:58:37;;;;;;;1.35;0.70;;;;;;;-145.69;94.15;70578.69;5074815;28;20209;-78
2022/05/24 07:03:52;;;;;;;1.25;0.68;;;;;;;-145.69;98.76;70614.47;5074338;28;20348;-78
2022/05/24 07:06:18;;;;;;;2.80;0.82;;;;;;;-145.69;100.00;70660.25;5074431;28;20662;-78
2022/05/24 07:08:46;;;;;;;6.22;1.00;;;;;;;-145.69;100.00;70737.84;5074588;28;20202;-78
2022/05/24 07:11:14;;;;;;;3.17;0.70;;;;;;;-145.69;100.00;70922.88;5074561;28;20207;-78
2022/05/24 07:13:41;;;;;;;1.57;0.60;;;;;;;-145.69;100.00;70988.53;5074048;28;20203;-79
2022/05/24 07:16:10;;;;;;;3.93;0.57;;;;;;;-145.69;100.00;71010.41;5074109;28;20206;-78
2022/05/24 07:18:37;;;;;;;1.50;0.60;;;;;;;-145.69;100.00;71036.28;5074303;28;20657;-79
2022/05/24 07:21:05;;;;;;;4.27;0.70;;;;;;;-145.69;100.00;71080.06;5074534;28;20199;-79
2022/05/24 07:23:37;;;;;;;1.37;0.80;;;;;;;-145.69;100.00;71101.94;5074106;28;20317;-78
2022/05/24 07:26:10;;;;;;;2.27;0.70;;;;;;;-145.69;100.00;71115.88;5074365;28;20235;-78
2022/05/24 07:28:36;;;;;;;1.50;1.00;;;;;;;-145.69;100.00;71099.94;5073948;28;20195;-78
2022/05/24 07:31:03;;;;;;;1.80;0.83;;;;;;;-145.69;100.00;71080.06;5074450;28;20258;-78
2022/05/24 07:33:32;;;;;;;1.10;0.50;;;;;;;-145.69;100.00;71084.03;5074041;28;20202;-79
2022/05/24 07:35:58;;;;;;;0.60;0.47;;;;;;;-145.69;100.00;71068.13;5074103;28;20195;-79
2022/05/24 07:38:25;;;;;;;1.23;0.60;;;;;;;-145.69;100.00;71056.16;5074181;28;20228;-79
2022/05/24 07:46:19;;;;;;;0.70;0.60;;;;;;;-145.69;100.00;70982.56;5054110;28;20202;-79
2022/05/24 07:48:47;;;;;;;0.73;0.60;;;;;;;-145.69;100.00;70978.56;5053967;28;20605;-78
2022/05/24 07:51:13;;;;;;;2.37;0.50;;;;;;;-145.69;100.00;70962.66;5068412;28;20684;-79
2022/05/24 07:53:39;;;;;;;2.87;0.70;;;;;;;-145.69;100.00;70936.78;5073699;28;20210;-79
2022/05/24 07:56:06;;;;;;;2.40;0.80;;;;;;;-145.69;100.00;70904.97;5073829;28;20222;-78
2022/05/24 07:58:33;;;;;;;1.60;0.82;;;;;;;-145.69;100.00;70899.00;5073692;28;20221;-79
2022/05/24 08:01:02;;;;;;;1.58;0.60;;;;;;;-145.69;100.00;70895.00;5073706;28;20246;-78
2022/05/24 08:03:29;;;;;;;0.75;0.50;;;;;;;-145.69;100.00;70893.03;5073397;28;20195;-79
2022/05/24 08:05:57;;;;;;;5.97;0.82;;;;;;;-145.69;100.00;70914.91;5072548;28;20573;-77
2022/05/24 08:08:24;;;;;;;0.85;0.65;;;;;;;-145.69;100.00;70899.00;5073114;28;20199;-78
2022/05/24 08:10:53;;;;;;;1.63;0.73;;;;;;;-145.69;100.00;70883.06;5073067;28;20572;-78
2022/05/24 08:13:20;;;;;;;0.60;0.40;;;;;;;-145.69;100.00;70863.19;5072547;28;20203;-78
2022/05/24 08:15:47;;;;;;;1.48;0.50;;;;;;;-145.69;100.00;70807.47;5073297;28;20194;-79
2022/05/24 08:18:14;;;;;;;0.75;0.57;;;;;;;-145.69;100.00;70845.28;5073555;28;20603;-78
2022/05/24 08:20:41;;;;;;;0.80;0.70;;;;;;;-145.69;100.00;70829.34;5073120;28;20577;-79
2022/05/24 08:23:10;;;;;;;3.63;0.50;;;;;;;-145.69;100.00;70811.44;5072629;28;20203;-79
2022/05/24 08:25:36;;;;;;;2.78;0.50;;;;;;;-145.69;100.00;70749.78;5072887;28;20667;-79
2022/05/24 08:28:07;;;;;;;1.02;0.30;;;;;;;-145.69;100.00;70717.94;5072858;28;20565;-78
2022/05/24 08:30:35;;;;;;;0.30;0.30;;;;;;;-145.69;100.00;70737.84;5073211;28;20195;-78
2022/05/24 08:33:04;;;;;;;1.35;0.30;;;;;;;-145.69;96.87;70642.34;5072974;28;20210;-79
2022/05/24 08:35:32;;;;;;;1.58;0.32;;;;;;;-145.69;98.55;70674.16;5072963;28;20272;-79
2022/05/24 08:37:59;;;;;;;0.88;0.30;;;;;;;-145.69;94.06;70598.56;5073235;28;20230;-79
2022/05/24 08:40:27;;;;;;;0.30;0.30;;;;;;;-145.69;82.82;70624.44;5072894;28;20191;-79
2022/05/24 08:43:25;;;;;;;1.67;0.30;;;;;;;-145.69;89.46;70725.91;5072799;28;20203;-79
2022/05/24 08:48:44;;;;;;;0.52;0.30;;;;;;;-145.69;93.53;70749.78;5070948;28;20197;-78
2022/05/24 08:51:18;;;;;;;0.40;0.38;;;;;;;-145.69;90.79;70698.03;5070818;28;20209;-79
2022/05/24 08:53:46;;;;;;;0.32;0.32;;;;;;;-145.69;88.12;70678.16;5050987;28;20206;-78
2022/05/24 08:56:18;;;;;;;0.40;0.40;;;;;;;-145.69;87.31;70678.16;5050749;28;20678;-79
2022/05/24 08:58:50;;;;;;;0.40;0.40;;;;;;;-145.69;89.31;70686.09;5051752;28;20249;-78
2022/05/24 09:01:24;;;;;;;0.63;0.50;;;;;;;-145.69;84.78;70721.91;5052866;28;20242;-79
2022/05/24 09:03:51;;;;;;;1.63;0.40;;;;;;;-145.69;83.12;70737.84;5055633;28;20442;-76
2022/05/24 09:06:34;;;;;;;0.38;0.38;;;;;;;-145.69;85.44;70745.78;5072797;28;20293;-76
2022/05/24 09:09:10;;;;;;;2.00;0.40;;;;;;;-145.69;84.50;70751.75;5073030;28;20206;-79
2022/05/24 09:12:05;;;;;;;1.30;0.40;;;;;;;-145.69;82.46;70682.13;5072620;28;20210;-78
2022/05/24 09:14:43;;;;;;;0.22;0.22;;;;;;;-145.69;83.76;70624.44;5072744;28;20354;-79
2022/05/24 09:17:22;;;;;;;0.85;0.40;;;;;;;-145.69;77.90;70694.06;5072277;28;20226;-79
2022/05/24 09:19:48;;;;;;;2.55;0.50;;;;;;;-145.69;79.17;70670.19;5072407;28;20237;-78
2022/05/24 09:22:15;;;;;;;0.65;0.55;;;;;;;-145.69;76.28;70678.16;5071433;28;20199;-78
2022/05/24 09:24:45;;;;;;;0.70;0.40;;;;;;;-145.69;83.19;70632.38;5071556;28;20460;-77
2022/05/24 09:27:18;;;;;;;1.20;0.68;;;;;;;-145.69;83.85;70618.47;5072368;28;20216;-78
2022/05/24 09:29:58;;;;;;;0.57;0.50;;;;;;;-145.69;74.76;70672.19;5072188;28;20285;-77
2022/05/24 09:32:35;;;;;;;3.33;0.68;;;;;;;-145.69;76.63;70598.56;5072606;28;20276;-77
2022/05/24 09:35:11;;;;;;;0.43;0.40;;;;;;;-145.69;76.42;70608.53;5072605;28;20438;-78
2022/05/24 09:37:39;;;;;;;1.17;0.45;;;;;;;-145.69;76.04;70590.63;5076362;28;20201;-78
2022/05/24 09:40:16;;;;;;;1.80;0.50;;;;;;;-145.69;73.75;70526.94;5075869;28;20719;-77
2022/05/24 09:42:44;;;;;;;0.77;0.40;;;;;;;-145.69;75.21;70542.88;5071482;28;20283;-78
2022/05/24 09:45:15;;;;;;;0.85;0.32;;;;;;;-145.69;70.22;70515.00;5054666;28;20223;-77
2022/05/24 09:47:54;;;;;;;1.33;0.40;;;;;;;-145.69;64.50;70542.88;5056063;28;20287;-75
2022/05/24 09:50:24;;;;;;;1.38;0.45;;;;;;;-145.69;73.34;70511.03;5074636;28;20665;-76
2022/05/24 09:53:12;;;;;;;1.00;0.45;;;;;;;-145.69;66.65;70544.84;5075813;28;20213;-77
2022/05/24 09:55:41;;;;;;;1.55;0.40;;;;;;;-145.69;70.16;70548.84;5076000;28;20683;-75
2022/05/24 09:58:28;;;;;;;1.95;0.60;;;;;;;-145.69;64.51;70626.41;5075907;28;20207;-76
2022/05/24 10:00:58;;;;;;;1.38;0.30;;;;;;;-145.69;66.58;70614.47;5075828;28;20198;-76
2022/05/24 10:03:28;;;;;;;1.55;0.20;;;;;;;-145.69;67.17;70606.53;5075868;28;20665;-76
2022/05/24 10:06:09;;;;;;;2.33;0.60;;;;;;;-145.69;64.60;70634.38;5075630;28;20700;-77
2022/05/24 10:08:37;;;;;;;3.13;0.50;;;;;;;-145.69;65.60;70656.25;5075761;28;20198;-76
2022/05/24 10:11:06;;;;;;;0.50;0.50;;;;;;;-145.69;66.43;70678.16;5074776;28;20199;-77
2022/05/24 10:13:45;;;;;;;0.82;0.50;;;;;;;-145.69;69.35;70622.44;5075039;28;20195;-77
2022/05/24 10:16:21;;;;;;;2.38;0.50;;;;;;;-145.69;62.90;70598.56;5075696;28;20276;-77
2022/05/24 10:19:13;;;;;;;1.65;0.30;;;;;;;-145.69;66.86;70574.69;5075661;28;20195;-77
2022/05/24 10:21:46;;;;;;;1.40;0.60;;;;;;;-145.69;63.05;70592.59;5074976;28;20669;-75
2022/05/24 10:24:29;;;;;;;0.40;0.30;;;;;;;-145.69;62.54;70634.38;5074828;28;20296;-77
2022/05/24 10:27:01;;;;;;;0.80;0.50;;;;;;;-145.69;65.94;70646.31;5075503;28;20195;-76
2022/05/24 10:29:42;;;;;;;2.30;0.40;;;;;;;-145.69;64.38;70592.59;5075281;28;20657;-76
2022/05/24 10:38:20;;;;;;;0.90;0.60;;;;;;;-145.69;62.09;70622.44;5072764;28;20332;-77
2022/05/24 10:40:55;;;;;;;0.88;0.40;;;;;;;-145.69;60.81;70610.50;5075357;28;20555;-75
2022/05/24 10:43:38;;;;;;;1.27;0.40;;;;;;;-145.69;59.61;70626.41;5075146;28;20198;-78
2022/05/24 10:46:11;;;;;;;0.90;0.40;;;;;;;-145.69;60.54;70574.69;5074856;28;20649;-78
2022/05/24 10:48:44;;;;;;;3.33;0.50;;;;;;;-145.69;61.95;70526.94;5073853;28;20187;-78
2022/05/24 10:51:17;;;;;;;2.30;0.50;;;;;;;-145.69;62.16;70532.91;5075125;28;20206;-78
2022/05/24 10:53:51;;;;;;;0.52;0.30;;;;;;;-145.69;59.21;70574.69;5075074;28;20237;-77
2022/05/24 10:56:28;;;;;;;0.50;0.50;;;;;;;-145.69;63.78;70463.28;5074899;28;20229;-78
2022/05/24 10:59:07;;;;;;;0.30;0.30;;;;;;;-145.69;60.45;70443.41;5074378;28;20198;-77
2022/05/24 11:01:41;;;;;;;0.40;0.30;;;;;;;-145.69;50.74;70423.50;5074834;28;20285;-78
2022/05/24 11:04:17;;;;;;;0.50;0.35;;;;;;;-145.69;54.61;70335.97;5072848;28;20233;-78
2022/05/24 11:06:53;;;;;;;0.95;0.55;;;;;;;-145.69;53.75;70387.69;5074421;28;20315;-78
2022/05/24 11:09:24;;;;;;;0.45;0.40;;;;;;;-145.69;52.16;70453.34;5074069;28;20260;-78
2022/05/24 11:12:02;;;;;;;2.15;0.50;;;;;;;-145.69;55.25;70479.19;5074295;28;20202;-78
2022/05/24 11:14:42;;;;;;;0.75;0.40;;;;;;;-145.69;53.84;70459.31;5074404;28;20202;-78
2022/05/24 11:17:13;;;;;;;1.10;0.50;;;;;;;-145.69;53.20;70407.59;5074410;28;20568;-78
2022/05/24 11:19:45;;;;;;;0.98;0.52;;;;;;;-145.69;48.39;70381.72;5074332;28;20253;-78
2022/05/24 11:22:23;;;;;;;1.63;0.47;;;;;;;-145.69;51.23;70312.09;5071920;28;20260;-78
2022/05/24 11:24:57;;;;;;;4.18;0.70;;;;;;;-145.69;49.71;70383.72;5073956;28;20287;-78
2022/05/24 11:27:29;;;;;;;0.43;0.43;;;;;;;-145.69;57.23;70381.72;5074226;28;20198;-77
2022/05/24 11:29:59;;;;;;;1.88;0.47;;;;;;;-145.69;50.10;70328.00;5074170;28;20290;-77
2022/05/24 11:32:42;;;;;;;0.80;0.47;;;;;;;-145.69;51.73;70264.34;5074160;28;20197;-79
2022/05/24 11:35:23;;;;;;;3.38;0.43;;;;;;;-145.69;55.72;70272.31;5073709;28;20226;-77
2022/05/24 11:37:55;;;;;;;0.77;0.43;;;;;;;-145.69;52.66;70154.94;5072502;28;20549;-77
2022/05/24 11:40:31;;;;;;;0.73;0.50;;;;;;;-145.69;46.82;70264.34;5073449;28;20229;-79
2022/05/24 11:42:59;;;;;;;0.80;0.40;;;;;;;-145.69;54.51;70316.06;5073959;28;20198;-78
2022/05/24 11:46:03;;;;;;;0.70;0.43;;;;;;;-145.69;53.83;70379.72;5073624;28;20303;-79
2022/05/24 11:48:46;;;;;;;2.22;0.50;;;;;;;-145.69;51.13;70475.22;5057442;28;20767;-79
2022/05/24 11:51:39;;;;;;;1.08;0.50;;;;;;;-145.69;55.13;70405.59;5073476;28;20194;-78
2022/05/24 11:54:09;;;;;;;1.20;0.30;;;;;;;-145.69;51.97;70353.88;5072764;28;20198;-77
2022/05/24 11:56:38;;;;;;;0.43;0.40;;;;;;;-145.69;51.57;70260.38;5070715;28;20565;-77
2022/05/24 11:59:11;;;;;;;0.90;0.32;;;;;;;-145.69;52.29;70264.34;5071794;28;20703;-77
2022/05/24 12:01:49;;;;;;;0.52;0.50;;;;;;;-145.69;51.37;70210.66;5073245;28;20669;-78